sensor_id;sensor_type;location;lat;lon;timestamp;P1;durP1;ratioP1;P2;durP2;ratioP2
74512;SDS011;62992;52.052;8.550;2023-04-23T00:01:30;21.23;;;14.37;;
74512;SDS011;62992;52.052;8.550;2023-04-23T00:04:18;21.63;;;14.45;;
74512;SDS011;62992;52.052;8.550;2023-04-23T00:07:05;21.27;;;14.52;;
74512;SDS011;62992;52.052;8.550;2023-04-23T00:09:49;20.98;;;14.75;;
74512;SDS011;62992;52.052;8.550;2023-04-23T00:12:37;26.65;;;16.63;;
74512;SDS011;62992;52.052;8.550;2023-04-23T00:15:21;25.08;;;16.38;;
74512;SDS011;62992;52.052;8.550;2023-04-23T00:18:06;23.40;;;15.25;;
74512;SDS011;62992;52.052;8.550;2023-04-23T00:20:50;23.67;;;15.57;;
74512;SDS011;62992;52.052;8.550;2023-04-23T00:23:35;24.88;;;15.40;;
74512;SDS011;62992;52.052;8.550;2023-04-23T00:26:20;23.60;;;15.73;;
74512;SDS011;62992;52.052;8.550;2023-04-23T00:29:04;25.55;;;15.27;;
74512;SDS011;62992;52.052;8.550;2023-04-23T00:31:48;23.83;;;15.68;;
74512;SDS011;62992;52.052;8.550;2023-04-23T00:34:32;25.60;;;16.33;;
74512;SDS011;62992;52.052;8.550;2023-04-23T00:37:16;26.70;;;16.65;;
74512;SDS011;62992;52.052;8.550;2023-04-23T00:40:00;25.90;;;16.17;;
74512;SDS011;62992;52.052;8.550;2023-04-23T00:42:45;25.30;;;15.63;;
74512;SDS011;62992;52.052;8.550;2023-04-23T00:45:29;28.33;;;16.80;;
74512;SDS011;62992;52.052;8.550;2023-04-23T00:48:13;27.85;;;16.95;;
74512;SDS011;62992;52.052;8.550;2023-04-23T00:50:59;28.70;;;17.87;;
74512;SDS011;62992;52.052;8.550;2023-04-23T00:53:46;27.77;;;17.30;;
74512;SDS011;62992;52.052;8.550;2023-04-23T00:56:31;30.42;;;17.83;;
74512;SDS011;62992;52.052;8.550;2023-04-23T00:59:17;28.10;;;17.60;;
74512;SDS011;62992;52.052;8.550;2023-04-23T01:02:02;28.13;;;17.65;;
74512;SDS011;62992;52.052;8.550;2023-04-23T01:04:46;26.58;;;17.38;;
74512;SDS011;62992;52.052;8.550;2023-04-23T01:07:33;31.63;;;18.92;;
74512;SDS011;62992;52.052;8.550;2023-04-23T01:10:18;29.45;;;18.35;;
74512;SDS011;62992;52.052;8.550;2023-04-23T01:13:02;30.13;;;18.35;;
74512;SDS011;62992;52.052;8.550;2023-04-23T01:15:47;31.33;;;19.65;;
74512;SDS011;62992;52.052;8.550;2023-04-23T01:18:31;29.50;;;19.20;;
74512;SDS011;62992;52.052;8.550;2023-04-23T01:21:16;32.50;;;19.38;;
74512;SDS011;62992;52.052;8.550;2023-04-23T01:24:04;30.85;;;18.90;;
74512;SDS011;62992;52.052;8.550;2023-04-23T01:26:49;31.50;;;19.60;;
74512;SDS011;62992;52.052;8.550;2023-04-23T01:29:33;35.05;;;19.92;;
74512;SDS011;62992;52.052;8.550;2023-04-23T01:32:18;32.00;;;18.92;;
74512;SDS011;62992;52.052;8.550;2023-04-23T01:35:03;35.13;;;20.42;;
74512;SDS011;62992;52.052;8.550;2023-04-23T01:37:49;35.65;;;20.63;;
74512;SDS011;62992;52.052;8.550;2023-04-23T01:40:35;34.75;;;20.00;;
74512;SDS011;62992;52.052;8.550;2023-04-23T01:43:20;32.70;;;19.33;;
74512;SDS011;62992;52.052;8.550;2023-04-23T01:46:05;34.50;;;20.02;;
74512;SDS011;62992;52.052;8.550;2023-04-23T01:48:49;35.25;;;19.58;;
74512;SDS011;62992;52.052;8.550;2023-04-23T01:51:34;33.08;;;18.88;;
74512;SDS011;62992;52.052;8.550;2023-04-23T01:54:18;35.47;;;19.77;;
74512;SDS011;62992;52.052;8.550;2023-04-23T01:57:02;34.42;;;19.35;;
74512;SDS011;62992;52.052;8.550;2023-04-23T01:59:47;32.70;;;18.42;;
74512;SDS011;62992;52.052;8.550;2023-04-23T02:02:31;34.13;;;20.15;;
74512;SDS011;62992;52.052;8.550;2023-04-23T02:05:16;30.52;;;18.85;;
74512;SDS011;62992;52.052;8.550;2023-04-23T02:08:02;31.30;;;18.55;;
74512;SDS011;62992;52.052;8.550;2023-04-23T02:10:46;32.88;;;18.70;;
74512;SDS011;62992;52.052;8.550;2023-04-23T02:13:31;34.28;;;18.65;;
74512;SDS011;62992;52.052;8.550;2023-04-23T02:16:15;33.50;;;18.58;;
74512;SDS011;62992;52.052;8.550;2023-04-23T02:18:59;35.80;;;19.95;;
74512;SDS011;62992;52.052;8.550;2023-04-23T02:21:44;33.60;;;19.73;;
74512;SDS011;62992;52.052;8.550;2023-04-23T02:24:29;33.53;;;19.13;;
74512;SDS011;62992;52.052;8.550;2023-04-23T02:27:12;34.45;;;19.73;;
74512;SDS011;62992;52.052;8.550;2023-04-23T02:29:57;35.65;;;18.67;;
74512;SDS011;62992;52.052;8.550;2023-04-23T02:32:41;34.17;;;19.00;;
74512;SDS011;62992;52.052;8.550;2023-04-23T02:35:26;34.05;;;19.17;;
74512;SDS011;62992;52.052;8.550;2023-04-23T02:38:10;36.08;;;20.17;;
74512;SDS011;62992;52.052;8.550;2023-04-23T02:40:54;35.17;;;18.70;;
74512;SDS011;62992;52.052;8.550;2023-04-23T02:43:38;36.75;;;20.17;;
74512;SDS011;62992;52.052;8.550;2023-04-23T02:46:22;34.72;;;19.50;;
74512;SDS011;62992;52.052;8.550;2023-04-23T02:49:06;34.78;;;19.67;;
74512;SDS011;62992;52.052;8.550;2023-04-23T02:51:50;37.78;;;20.25;;
74512;SDS011;62992;52.052;8.550;2023-04-23T02:54:34;34.28;;;18.65;;
74512;SDS011;62992;52.052;8.550;2023-04-23T02:57:22;31.92;;;18.88;;
74512;SDS011;62992;52.052;8.550;2023-04-23T03:00:06;34.33;;;18.92;;
74512;SDS011;62992;52.052;8.550;2023-04-23T03:02:51;33.20;;;19.98;;
74512;SDS011;62992;52.052;8.550;2023-04-23T03:05:35;36.42;;;19.30;;
74512;SDS011;62992;52.052;8.550;2023-04-23T03:08:19;35.28;;;19.55;;
74512;SDS011;62992;52.052;8.550;2023-04-23T03:11:04;37.55;;;19.60;;
74512;SDS011;62992;52.052;8.550;2023-04-23T03:13:48;39.00;;;19.25;;
74512;SDS011;62992;52.052;8.550;2023-04-23T03:16:32;41.05;;;21.77;;
74512;SDS011;62992;52.052;8.550;2023-04-23T03:19:16;43.40;;;21.80;;
74512;SDS011;62992;52.052;8.550;2023-04-23T03:22:00;41.55;;;21.35;;
74512;SDS011;62992;52.052;8.550;2023-04-23T03:24:48;40.90;;;21.40;;
74512;SDS011;62992;52.052;8.550;2023-04-23T03:27:32;40.90;;;21.88;;
74512;SDS011;62992;52.052;8.550;2023-04-23T03:30:16;42.10;;;22.23;;
74512;SDS011;62992;52.052;8.550;2023-04-23T03:33:01;42.88;;;23.00;;
74512;SDS011;62992;52.052;8.550;2023-04-23T03:35:45;41.70;;;23.27;;
74512;SDS011;62992;52.052;8.550;2023-04-23T03:38:29;43.90;;;22.65;;
74512;SDS011;62992;52.052;8.550;2023-04-23T03:41:13;43.95;;;23.77;;
74512;SDS011;62992;52.052;8.550;2023-04-23T03:43:57;44.97;;;22.58;;
74512;SDS011;62992;52.052;8.550;2023-04-23T03:46:41;40.85;;;22.30;;
74512;SDS011;62992;52.052;8.550;2023-04-23T03:49:25;39.92;;;21.40;;
74512;SDS011;62992;52.052;8.550;2023-04-23T03:52:10;46.60;;;22.83;;
74512;SDS011;62992;52.052;8.550;2023-04-23T03:54:54;40.72;;;22.33;;
74512;SDS011;62992;52.052;8.550;2023-04-23T03:57:38;46.47;;;23.25;;
74512;SDS011;62992;52.052;8.550;2023-04-23T04:00:22;42.78;;;23.23;;
74512;SDS011;62992;52.052;8.550;2023-04-23T04:03:06;45.67;;;23.40;;
74512;SDS011;62992;52.052;8.550;2023-04-23T04:05:51;40.83;;;22.35;;
74512;SDS011;62992;52.052;8.550;2023-04-23T04:08:35;43.28;;;23.33;;
74512;SDS011;62992;52.052;8.550;2023-04-23T04:11:19;49.78;;;24.17;;
74512;SDS011;62992;52.052;8.550;2023-04-23T04:14:03;43.42;;;23.23;;
74512;SDS011;62992;52.052;8.550;2023-04-23T04:16:47;46.53;;;23.70;;
74512;SDS011;62992;52.052;8.550;2023-04-23T04:19:31;48.13;;;24.38;;
74512;SDS011;62992;52.052;8.550;2023-04-23T04:22:15;42.83;;;22.90;;
74512;SDS011;62992;52.052;8.550;2023-04-23T04:25:00;46.90;;;24.35;;
74512;SDS011;62992;52.052;8.550;2023-04-23T04:27:44;44.85;;;22.45;;
74512;SDS011;62992;52.052;8.550;2023-04-23T04:30:28;40.22;;;22.33;;
74512;SDS011;62992;52.052;8.550;2023-04-23T04:33:12;44.72;;;23.50;;
74512;SDS011;62992;52.052;8.550;2023-04-23T04:35:57;43.40;;;22.73;;
74512;SDS011;62992;52.052;8.550;2023-04-23T04:38:43;44.80;;;22.52;;
74512;SDS011;62992;52.052;8.550;2023-04-23T04:41:27;47.03;;;23.58;;
74512;SDS011;62992;52.052;8.550;2023-04-23T04:44:11;45.80;;;23.17;;
74512;SDS011;62992;52.052;8.550;2023-04-23T04:46:56;46.70;;;24.35;;
74512;SDS011;62992;52.052;8.550;2023-04-23T04:49:40;45.72;;;23.27;;
74512;SDS011;62992;52.052;8.550;2023-04-23T04:52:25;44.30;;;22.77;;
74512;SDS011;62992;52.052;8.550;2023-04-23T04:55:10;46.43;;;24.17;;
74512;SDS011;62992;52.052;8.550;2023-04-23T04:57:54;43.63;;;23.23;;
74512;SDS011;62992;52.052;8.550;2023-04-23T05:00:38;45.83;;;23.65;;
74512;SDS011;62992;52.052;8.550;2023-04-23T05:03:23;46.63;;;24.65;;
74512;SDS011;62992;52.052;8.550;2023-04-23T05:06:08;48.40;;;25.40;;
74512;SDS011;62992;52.052;8.550;2023-04-23T05:08:53;50.60;;;25.55;;
74512;SDS011;62992;52.052;8.550;2023-04-23T05:11:37;50.92;;;26.40;;
74512;SDS011;62992;52.052;8.550;2023-04-23T05:14:22;53.53;;;27.13;;
74512;SDS011;62992;52.052;8.550;2023-04-23T05:17:09;51.88;;;25.88;;
74512;SDS011;62992;52.052;8.550;2023-04-23T05:19:54;54.38;;;26.02;;
74512;SDS011;62992;52.052;8.550;2023-04-23T05:22:38;51.45;;;25.83;;
74512;SDS011;62992;52.052;8.550;2023-04-23T05:25:26;56.28;;;27.35;;
74512;SDS011;62992;52.052;8.550;2023-04-23T05:28:13;51.63;;;25.20;;
74512;SDS011;62992;52.052;8.550;2023-04-23T05:30:58;53.00;;;25.17;;
74512;SDS011;62992;52.052;8.550;2023-04-23T05:33:42;52.17;;;26.08;;
74512;SDS011;62992;52.052;8.550;2023-04-23T05:36:29;58.35;;;26.33;;
74512;SDS011;62992;52.052;8.550;2023-04-23T05:39:14;56.05;;;25.70;;
74512;SDS011;62992;52.052;8.550;2023-04-23T05:41:58;56.83;;;27.33;;
74512;SDS011;62992;52.052;8.550;2023-04-23T05:44:42;57.00;;;26.00;;
74512;SDS011;62992;52.052;8.550;2023-04-23T05:47:26;56.22;;;26.67;;
74512;SDS011;62992;52.052;8.550;2023-04-23T05:50:11;59.83;;;27.37;;
74512;SDS011;62992;52.052;8.550;2023-04-23T05:52:55;57.25;;;28.02;;
74512;SDS011;62992;52.052;8.550;2023-04-23T05:55:39;58.45;;;27.30;;
74512;SDS011;62992;52.052;8.550;2023-04-23T05:58:23;57.88;;;27.73;;
74512;SDS011;62992;52.052;8.550;2023-04-23T06:01:08;56.10;;;27.93;;
74512;SDS011;62992;52.052;8.550;2023-04-23T06:03:52;56.22;;;26.60;;
74512;SDS011;62992;52.052;8.550;2023-04-23T06:06:37;56.70;;;26.92;;
74512;SDS011;62992;52.052;8.550;2023-04-23T06:09:22;55.35;;;26.92;;
74512;SDS011;62992;52.052;8.550;2023-04-23T06:12:06;50.80;;;25.00;;
74512;SDS011;62992;52.052;8.550;2023-04-23T06:14:51;47.25;;;23.90;;
74512;SDS011;62992;52.052;8.550;2023-04-23T06:17:35;54.05;;;25.20;;
74512;SDS011;62992;52.052;8.550;2023-04-23T06:20:20;51.38;;;23.77;;
74512;SDS011;62992;52.052;8.550;2023-04-23T06:23:04;48.08;;;23.73;;
74512;SDS011;62992;52.052;8.550;2023-04-23T06:25:49;41.05;;;21.75;;
74512;SDS011;62992;52.052;8.550;2023-04-23T06:28:33;41.03;;;20.98;;
74512;SDS011;62992;52.052;8.550;2023-04-23T06:31:17;37.58;;;20.27;;
74512;SDS011;62992;52.052;8.550;2023-04-23T06:34:02;38.83;;;20.45;;
74512;SDS011;62992;52.052;8.550;2023-04-23T06:36:46;37.85;;;20.52;;
74512;SDS011;62992;52.052;8.550;2023-04-23T06:39:30;36.42;;;20.05;;
74512;SDS011;62992;52.052;8.550;2023-04-23T06:42:14;33.28;;;19.40;;
74512;SDS011;62992;52.052;8.550;2023-04-23T06:44:58;31.17;;;18.77;;
74512;SDS011;62992;52.052;8.550;2023-04-23T06:47:46;30.95;;;17.65;;
74512;SDS011;62992;52.052;8.550;2023-04-23T06:50:32;31.20;;;18.35;;
74512;SDS011;62992;52.052;8.550;2023-04-23T06:53:16;29.55;;;17.90;;
74512;SDS011;62992;52.052;8.550;2023-04-23T06:56:00;24.75;;;15.63;;
74512;SDS011;62992;52.052;8.550;2023-04-23T06:58:44;24.60;;;14.43;;
74512;SDS011;62992;52.052;8.550;2023-04-23T07:01:28;23.55;;;14.63;;
74512;SDS011;62992;52.052;8.550;2023-04-23T07:04:13;22.40;;;14.20;;
74512;SDS011;62992;52.052;8.550;2023-04-23T07:06:57;23.67;;;14.00;;
74512;SDS011;62992;52.052;8.550;2023-04-23T07:09:42;21.40;;;12.60;;
74512;SDS011;62992;52.052;8.550;2023-04-23T07:12:27;24.73;;;12.85;;
74512;SDS011;62992;52.052;8.550;2023-04-23T07:15:11;21.23;;;12.20;;
74512;SDS011;62992;52.052;8.550;2023-04-23T07:17:55;19.92;;;12.48;;
74512;SDS011;62992;52.052;8.550;2023-04-23T07:20:39;17.85;;;11.02;;
74512;SDS011;62992;52.052;8.550;2023-04-23T07:23:23;13.70;;;8.80;;
74512;SDS011;62992;52.052;8.550;2023-04-23T07:26:07;13.40;;;8.05;;
74512;SDS011;62992;52.052;8.550;2023-04-23T07:28:51;12.13;;;7.85;;
74512;SDS011;62992;52.052;8.550;2023-04-23T07:31:36;11.68;;;8.43;;
74512;SDS011;62992;52.052;8.550;2023-04-23T07:34:22;9.45;;;7.20;;
74512;SDS011;62992;52.052;8.550;2023-04-23T07:37:06;10.45;;;8.23;;
74512;SDS011;62992;52.052;8.550;2023-04-23T07:39:50;8.25;;;7.40;;
74512;SDS011;62992;52.052;8.550;2023-04-23T07:42:36;9.32;;;7.03;;
74512;SDS011;62992;52.052;8.550;2023-04-23T07:45:20;8.02;;;6.38;;
74512;SDS011;62992;52.052;8.550;2023-04-23T07:48:04;11.52;;;7.57;;
74512;SDS011;62992;52.052;8.550;2023-04-23T07:50:49;10.55;;;7.78;;
74512;SDS011;62992;52.052;8.550;2023-04-23T07:53:33;7.30;;;6.35;;
74512;SDS011;62992;52.052;8.550;2023-04-23T07:56:18;8.20;;;6.15;;
74512;SDS011;62992;52.052;8.550;2023-04-23T07:59:04;7.50;;;6.05;;
74512;SDS011;62992;52.052;8.550;2023-04-23T08:01:52;6.93;;;5.20;;
74512;SDS011;62992;52.052;8.550;2023-04-23T08:04:36;6.38;;;5.25;;
74512;SDS011;62992;52.052;8.550;2023-04-23T08:07:20;5.28;;;4.78;;
74512;SDS011;62992;52.052;8.550;2023-04-23T08:10:04;6.85;;;5.40;;
74512;SDS011;62992;52.052;8.550;2023-04-23T08:12:49;6.35;;;5.35;;
74512;SDS011;62992;52.052;8.550;2023-04-23T08:15:33;7.80;;;6.78;;
74512;SDS011;62992;52.052;8.550;2023-04-23T08:18:17;9.80;;;8.80;;
74512;SDS011;62992;52.052;8.550;2023-04-23T08:21:01;10.67;;;9.60;;
74512;SDS011;62992;52.052;8.550;2023-04-23T08:23:45;11.43;;;9.80;;
74512;SDS011;62992;52.052;8.550;2023-04-23T08:26:29;10.98;;;9.40;;
74512;SDS011;62992;52.052;8.550;2023-04-23T08:29:13;10.45;;;9.07;;
74512;SDS011;62992;52.052;8.550;2023-04-23T08:31:57;13.50;;;11.23;;
74512;SDS011;62992;52.052;8.550;2023-04-23T08:34:41;11.98;;;10.73;;
74512;SDS011;62992;52.052;8.550;2023-04-23T08:37:25;12.63;;;10.43;;
74512;SDS011;62992;52.052;8.550;2023-04-23T08:40:09;15.40;;;11.20;;
74512;SDS011;62992;52.052;8.550;2023-04-23T08:43:01;14.18;;;12.00;;
74512;SDS011;62992;52.052;8.550;2023-04-23T08:45:49;15.60;;;12.63;;
74512;SDS011;62992;52.052;8.550;2023-04-23T08:48:33;13.23;;;11.55;;
74512;SDS011;62992;52.052;8.550;2023-04-23T08:51:18;13.15;;;11.68;;
74512;SDS011;62992;52.052;8.550;2023-04-23T08:54:07;14.23;;;11.60;;
74512;SDS011;62992;52.052;8.550;2023-04-23T08:56:57;13.27;;;11.85;;
74512;SDS011;62992;52.052;8.550;2023-04-23T08:59:42;16.10;;;11.93;;
74512;SDS011;62992;52.052;8.550;2023-04-23T09:02:27;14.00;;;11.43;;
74512;SDS011;62992;52.052;8.550;2023-04-23T09:05:12;12.82;;;11.43;;
74512;SDS011;62992;52.052;8.550;2023-04-23T09:07:57;12.27;;;10.52;;
74512;SDS011;62992;52.052;8.550;2023-04-23T09:10:42;10.60;;;9.50;;
74512;SDS011;62992;52.052;8.550;2023-04-23T09:13:28;9.77;;;8.77;;
74512;SDS011;62992;52.052;8.550;2023-04-23T09:16:14;9.82;;;8.68;;
74512;SDS011;62992;52.052;8.550;2023-04-23T09:18:58;10.43;;;8.80;;
74512;SDS011;62992;52.052;8.550;2023-04-23T09:21:43;10.30;;;7.85;;
74512;SDS011;62992;52.052;8.550;2023-04-23T09:24:29;9.18;;;7.50;;
74512;SDS011;62992;52.052;8.550;2023-04-23T09:27:13;11.25;;;8.90;;
74512;SDS011;62992;52.052;8.550;2023-04-23T09:30:07;9.77;;;7.35;;
74512;SDS011;62992;52.052;8.550;2023-04-23T09:32:53;8.13;;;6.50;;
74512;SDS011;62992;52.052;8.550;2023-04-23T09:35:37;8.40;;;6.90;;
74512;SDS011;62992;52.052;8.550;2023-04-23T09:38:22;9.43;;;7.30;;
74512;SDS011;62992;52.052;8.550;2023-04-23T09:41:22;8.73;;;7.03;;
74512;SDS011;62992;52.052;8.550;2023-04-23T09:44:10;8.60;;;6.40;;
74512;SDS011;62992;52.052;8.550;2023-04-23T09:46:57;8.30;;;6.38;;
74512;SDS011;62992;52.052;8.550;2023-04-23T09:49:52;7.00;;;5.70;;
74512;SDS011;62992;52.052;8.550;2023-04-23T09:52:39;7.13;;;5.30;;
74512;SDS011;62992;52.052;8.550;2023-04-23T09:55:27;6.10;;;5.50;;
74512;SDS011;62992;52.052;8.550;2023-04-23T09:58:13;6.32;;;5.72;;
74512;SDS011;62992;52.052;8.550;2023-04-23T10:01:05;7.43;;;6.03;;
74512;SDS011;62992;52.052;8.550;2023-04-23T10:03:52;7.43;;;6.22;;
74512;SDS011;62992;52.052;8.550;2023-04-23T10:06:36;7.00;;;5.93;;
74512;SDS011;62992;52.052;8.550;2023-04-23T10:09:21;7.20;;;5.43;;
74512;SDS011;62992;52.052;8.550;2023-04-23T10:12:07;6.75;;;5.53;;
74512;SDS011;62992;52.052;8.550;2023-04-23T10:14:53;8.30;;;6.13;;
74512;SDS011;62992;52.052;8.550;2023-04-23T10:17:40;7.82;;;6.38;;
74512;SDS011;62992;52.052;8.550;2023-04-23T10:20:24;7.43;;;5.93;;
74512;SDS011;62992;52.052;8.550;2023-04-23T10:23:09;6.22;;;5.63;;
74512;SDS011;62992;52.052;8.550;2023-04-23T10:25:55;8.10;;;5.22;;
74512;SDS011;62992;52.052;8.550;2023-04-23T10:28:43;6.80;;;5.43;;
74512;SDS011;62992;52.052;8.550;2023-04-23T10:31:30;8.32;;;5.40;;
74512;SDS011;62992;52.052;8.550;2023-04-23T10:34:16;7.15;;;5.10;;
74512;SDS011;62992;52.052;8.550;2023-04-23T10:37:00;8.95;;;5.45;;
74512;SDS011;62992;52.052;8.550;2023-04-23T10:39:46;6.68;;;4.85;;
74512;SDS011;62992;52.052;8.550;2023-04-23T10:42:36;6.15;;;5.07;;
74512;SDS011;62992;52.052;8.550;2023-04-23T10:45:22;5.55;;;4.50;;
74512;SDS011;62992;52.052;8.550;2023-04-23T10:48:06;5.28;;;4.05;;
74512;SDS011;62992;52.052;8.550;2023-04-23T10:50:58;6.03;;;3.80;;
74512;SDS011;62992;52.052;8.550;2023-04-23T10:53:42;5.43;;;3.50;;
74512;SDS011;62992;52.052;8.550;2023-04-23T10:56:28;4.90;;;3.67;;
74512;SDS011;62992;52.052;8.550;2023-04-23T10:59:19;5.50;;;3.50;;
74512;SDS011;62992;52.052;8.550;2023-04-23T11:02:05;4.70;;;3.33;;
74512;SDS011;62992;52.052;8.550;2023-04-23T11:04:56;4.60;;;3.33;;
74512;SDS011;62992;52.052;8.550;2023-04-23T11:07:41;7.13;;;3.60;;
74512;SDS011;62992;52.052;8.550;2023-04-23T11:10:25;6.20;;;3.80;;
74512;SDS011;62992;52.052;8.550;2023-04-23T11:13:18;4.18;;;3.38;;
74512;SDS011;62992;52.052;8.550;2023-04-23T11:16:21;5.40;;;3.00;;
74512;SDS011;62992;52.052;8.550;2023-04-23T11:19:10;3.55;;;2.90;;
74512;SDS011;62992;52.052;8.550;2023-04-23T11:22:05;5.30;;;3.55;;
74512;SDS011;62992;52.052;8.550;2023-04-23T11:24:53;4.45;;;2.70;;
74512;SDS011;62992;52.052;8.550;2023-04-23T11:27:38;4.00;;;2.40;;
74512;SDS011;62992;52.052;8.550;2023-04-23T11:30:25;3.17;;;2.30;;
74512;SDS011;62992;52.052;8.550;2023-04-23T11:33:10;4.20;;;2.33;;
74512;SDS011;62992;52.052;8.550;2023-04-23T11:35:54;6.07;;;2.40;;
74512;SDS011;62992;52.052;8.550;2023-04-23T11:38:39;3.20;;;2.40;;
74512;SDS011;62992;52.052;8.550;2023-04-23T11:41:24;4.00;;;2.50;;
74512;SDS011;62992;52.052;8.550;2023-04-23T11:44:08;6.00;;;3.05;;
74512;SDS011;62992;52.052;8.550;2023-04-23T11:46:53;4.30;;;3.20;;
74512;SDS011;62992;52.052;8.550;2023-04-23T11:49:38;8.02;;;3.90;;
74512;SDS011;62992;52.052;8.550;2023-04-23T11:52:23;4.20;;;3.50;;
74512;SDS011;62992;52.052;8.550;2023-04-23T11:55:09;6.38;;;3.40;;
74512;SDS011;62992;52.052;8.550;2023-04-23T11:57:53;4.43;;;2.80;;
74512;SDS011;62992;52.052;8.550;2023-04-23T12:00:39;4.63;;;2.55;;
74512;SDS011;62992;52.052;8.550;2023-04-23T12:03:24;3.17;;;2.40;;
74512;SDS011;62992;52.052;8.550;2023-04-23T12:06:09;3.95;;;2.03;;
74512;SDS011;62992;52.052;8.550;2023-04-23T12:08:54;3.55;;;2.10;;
74512;SDS011;62992;52.052;8.550;2023-04-23T12:11:39;2.88;;;2.30;;
74512;SDS011;62992;52.052;8.550;2023-04-23T12:14:25;5.55;;;3.05;;
74512;SDS011;62992;52.052;8.550;2023-04-23T12:17:11;5.60;;;2.40;;
74512;SDS011;62992;52.052;8.550;2023-04-23T12:19:55;3.88;;;2.20;;
74512;SDS011;62992;52.052;8.550;2023-04-23T12:22:39;3.97;;;1.75;;
74512;SDS011;62992;52.052;8.550;2023-04-23T12:25:23;2.60;;;1.83;;
74512;SDS011;62992;52.052;8.550;2023-04-23T12:28:08;3.75;;;1.85;;
74512;SDS011;62992;52.052;8.550;2023-04-23T12:30:53;4.70;;;1.88;;
74512;SDS011;62992;52.052;8.550;2023-04-23T12:33:45;4.57;;;1.90;;
74512;SDS011;62992;52.052;8.550;2023-04-23T12:36:29;4.53;;;1.77;;
74512;SDS011;62992;52.052;8.550;2023-04-23T12:42:09;2.17;;;1.80;;
74512;SDS011;62992;52.052;8.550;2023-04-23T12:44:54;3.38;;;1.95;;
74512;SDS011;62992;52.052;8.550;2023-04-23T12:47:47;4.47;;;1.70;;
74512;SDS011;62992;52.052;8.550;2023-04-23T12:50:31;3.22;;;1.80;;
74512;SDS011;62992;52.052;8.550;2023-04-23T12:53:16;3.80;;;1.77;;
74512;SDS011;62992;52.052;8.550;2023-04-23T12:56:01;3.63;;;1.80;;
74512;SDS011;62992;52.052;8.550;2023-04-23T12:58:45;3.58;;;2.05;;
74512;SDS011;62992;52.052;8.550;2023-04-23T13:01:29;3.42;;;1.98;;
74512;SDS011;62992;52.052;8.550;2023-04-23T13:04:14;4.80;;;1.75;;
74512;SDS011;62992;52.052;8.550;2023-04-23T13:06:58;3.28;;;1.80;;
74512;SDS011;62992;52.052;8.550;2023-04-23T13:09:43;3.78;;;1.80;;
74512;SDS011;62992;52.052;8.550;2023-04-23T13:12:27;5.80;;;1.80;;
74512;SDS011;62992;52.052;8.550;2023-04-23T13:15:11;3.30;;;1.80;;
74512;SDS011;62992;52.052;8.550;2023-04-23T13:17:56;4.50;;;2.03;;
74512;SDS011;62992;52.052;8.550;2023-04-23T13:20:40;3.25;;;1.67;;
74512;SDS011;62992;52.052;8.550;2023-04-23T13:23:24;2.03;;;1.50;;
74512;SDS011;62992;52.052;8.550;2023-04-23T13:26:09;2.08;;;1.50;;
74512;SDS011;62992;52.052;8.550;2023-04-23T13:28:53;4.20;;;1.75;;
74512;SDS011;62992;52.052;8.550;2023-04-23T13:31:37;2.70;;;1.35;;
74512;SDS011;62992;52.052;8.550;2023-04-23T13:34:21;2.00;;;1.35;;
74512;SDS011;62992;52.052;8.550;2023-04-23T13:37:05;2.95;;;1.35;;
74512;SDS011;62992;52.052;8.550;2023-04-23T13:39:51;3.25;;;1.35;;
74512;SDS011;62992;52.052;8.550;2023-04-23T13:42:35;2.90;;;1.30;;
74512;SDS011;62992;52.052;8.550;2023-04-23T13:45:19;1.80;;;1.20;;
74512;SDS011;62992;52.052;8.550;2023-04-23T13:48:03;2.55;;;1.23;;
74512;SDS011;62992;52.052;8.550;2023-04-23T13:50:50;1.77;;;1.10;;
74512;SDS011;62992;52.052;8.550;2023-04-23T13:53:34;2.80;;;1.25;;
74512;SDS011;62992;52.052;8.550;2023-04-23T13:56:18;3.83;;;1.10;;
74512;SDS011;62992;52.052;8.550;2023-04-23T13:59:03;2.78;;;1.10;;
74512;SDS011;62992;52.052;8.550;2023-04-23T14:01:47;2.33;;;1.02;;
74512;SDS011;62992;52.052;8.550;2023-04-23T14:04:32;1.87;;;0.80;;
74512;SDS011;62992;52.052;8.550;2023-04-23T14:07:16;2.25;;;0.90;;
74512;SDS011;62992;52.052;8.550;2023-04-23T14:10:00;2.60;;;0.77;;
74512;SDS011;62992;52.052;8.550;2023-04-23T14:12:44;1.83;;;0.77;;
74512;SDS011;62992;52.052;8.550;2023-04-23T14:15:29;1.60;;;1.00;;
74512;SDS011;62992;52.052;8.550;2023-04-23T14:18:13;1.63;;;0.90;;
74512;SDS011;62992;52.052;8.550;2023-04-23T14:20:58;3.33;;;1.00;;
74512;SDS011;62992;52.052;8.550;2023-04-23T14:23:44;1.67;;;1.00;;
74512;SDS011;62992;52.052;8.550;2023-04-23T14:26:49;1.43;;;0.83;;
74512;SDS011;62992;52.052;8.550;2023-04-23T14:29:34;2.08;;;1.00;;
74512;SDS011;62992;52.052;8.550;2023-04-23T14:32:29;3.38;;;1.30;;
74512;SDS011;62992;52.052;8.550;2023-04-23T14:35:14;1.60;;;1.20;;
74512;SDS011;62992;52.052;8.550;2023-04-23T14:37:59;2.45;;;1.10;;
74512;SDS011;62992;52.052;8.550;2023-04-23T14:40:43;2.15;;;0.98;;
74512;SDS011;62992;52.052;8.550;2023-04-23T14:43:27;1.10;;;1.00;;
74512;SDS011;62992;52.052;8.550;2023-04-23T14:46:11;2.33;;;1.10;;
74512;SDS011;62992;52.052;8.550;2023-04-23T14:48:55;7.60;;;1.55;;
74512;SDS011;62992;52.052;8.550;2023-04-23T14:51:39;2.45;;;1.20;;
74512;SDS011;62992;52.052;8.550;2023-04-23T14:54:24;4.43;;;1.20;;
74512;SDS011;62992;52.052;8.550;2023-04-23T14:57:08;3.30;;;1.13;;
74512;SDS011;62992;52.052;8.550;2023-04-23T14:59:52;2.55;;;1.23;;
74512;SDS011;62992;52.052;8.550;2023-04-23T15:02:36;5.22;;;1.80;;
74512;SDS011;62992;52.052;8.550;2023-04-23T15:05:21;5.90;;;1.92;;
74512;SDS011;62992;52.052;8.550;2023-04-23T15:08:05;5.25;;;1.60;;
74512;SDS011;62992;52.052;8.550;2023-04-23T15:10:49;3.10;;;1.17;;
74512;SDS011;62992;52.052;8.550;2023-04-23T15:13:43;2.72;;;1.27;;
74512;SDS011;62992;52.052;8.550;2023-04-23T15:16:29;2.95;;;1.20;;
74512;SDS011;62992;52.052;8.550;2023-04-23T15:19:16;1.45;;;0.93;;
74512;SDS011;62992;52.052;8.550;2023-04-23T15:22:00;1.13;;;0.90;;
74512;SDS011;62992;52.052;8.550;2023-04-23T15:24:44;1.17;;;0.70;;
74512;SDS011;62992;52.052;8.550;2023-04-23T15:27:28;2.08;;;0.80;;
74512;SDS011;62992;52.052;8.550;2023-04-23T15:30:13;2.55;;;0.90;;
74512;SDS011;62992;52.052;8.550;2023-04-23T15:32:57;1.38;;;0.95;;
74512;SDS011;62992;52.052;8.550;2023-04-23T15:35:41;2.13;;;1.10;;
74512;SDS011;62992;52.052;8.550;2023-04-23T15:38:25;1.52;;;0.95;;
74512;SDS011;62992;52.052;8.550;2023-04-23T15:41:09;2.10;;;1.20;;
74512;SDS011;62992;52.052;8.550;2023-04-23T15:43:55;1.88;;;1.33;;
74512;SDS011;62992;52.052;8.550;2023-04-23T15:46:39;4.93;;;1.15;;
74512;SDS011;62992;52.052;8.550;2023-04-23T15:49:23;7.75;;;1.80;;
74512;SDS011;62992;52.052;8.550;2023-04-23T15:52:07;3.20;;;1.98;;
74512;SDS011;62992;52.052;8.550;2023-04-23T15:54:51;6.40;;;2.00;;
74512;SDS011;62992;52.052;8.550;2023-04-23T15:57:35;6.32;;;1.67;;
74512;SDS011;62992;52.052;8.550;2023-04-23T16:00:20;2.67;;;1.77;;
74512;SDS011;62992;52.052;8.550;2023-04-23T16:03:04;2.33;;;1.40;;
74512;SDS011;62992;52.052;8.550;2023-04-23T16:05:49;2.63;;;1.80;;
74512;SDS011;62992;52.052;8.550;2023-04-23T16:08:34;3.05;;;1.60;;
74512;SDS011;62992;52.052;8.550;2023-04-23T16:11:19;3.40;;;1.88;;
74512;SDS011;62992;52.052;8.550;2023-04-23T16:14:03;2.53;;;1.73;;
74512;SDS011;62992;52.052;8.550;2023-04-23T16:16:48;2.47;;;1.70;;
74512;SDS011;62992;52.052;8.550;2023-04-23T16:19:33;3.78;;;1.70;;
74512;SDS011;62992;52.052;8.550;2023-04-23T16:22:17;2.60;;;1.52;;